Terminal Aerodrome Forecast
Issued by NWS

Home | Current Version | Previous Version | Text Only | Print | Product List | Glossary On
Versions: 1 2 3 4 5 6 7 8 9 10 11 12 13 14 15 16
000
FTUS42 KTBW 290539
TAFRSW
TAF
KRSW 290539Z 2906/3006 VRB03KT P6SM FEW030 SCT250
     FM291400 12005KT P6SM SCT030 BKN250
     FM291700 24006KT P6SM VCTS BKN040CB BKN100
     FM300200 VRB03KT P6SM FEW025 BKN250=

USA.gov is the U.S. government's official web portal to all federal, state and local government web resources and services.